Arpan, South Dakota
Current Conditions -  °F | °C
As of 9:15 PM on Friday 24 Oct 2014 (Local Time) from KSPF Reporting Station
Overcast Overcast  
Wind Chill: 48°   Ceiling: 12000
Heat Index: 48°   Visibility: 10mi
Dew Point: 36°   Wind: 3mph
Humidity: 62%   Direction: 130°SE
Pressure: 30.15"   Gusts: NA
Location:  44.6391°N, 103.522°W
Report Text: KSPF 250315Z AUTO 13003KT 10SM OVC120 09/02 A3015 RMK AO2
Loading
Personal Weather Stations






























Interactive Weather Map
Tropical Storm Tracking
New forecast layout! Learn more

10-Day Weather Forecast

Advertisements
Track Severe Weather on mobile